CTV67 WIPP-WIII
Flight info
| Callsign | CTV67 |
|---|---|
| Flight time | 1h 1m |
| Altitude | 29000 |
| Route | UDOKO T5 BUNIK |
| Aircraft | A320/M-SDE3FGHIRWY/LB1 |
Departure
| Time | 2026-04-22 07:10 |
|---|---|
| Airport | Sultan Mahmud Badaruddin II Airport (WIPP) |
Arrival
| Time | 2026-04-22 08:11 |
|---|---|
| Airport | Soekarno-Hatta International Airport (WIII) |
| Time | Latitude | Longitude | Altitude | Speed | Heading |
|---|---|---|---|---|---|
| 2026-04-22 06:39 | -2.89608 | 104.70439 | 26 ft | 0 kts | 23° |
| 2026-04-22 06:57 | -2.89610 | 104.70438 | 29 ft | 2 kts | 23° |
| 2026-04-22 06:57 | -2.89635 | 104.70428 | 31 ft | 4 kts | 21° |
| 2026-04-22 06:57 | -2.89660 | 104.70419 | 29 ft | 4 kts | 17° |
| 2026-04-22 06:58 | -2.89686 | 104.70413 | 31 ft | 4 kts | 355° |
| 2026-04-22 06:58 | -2.89704 | 104.70419 | 26 ft | 1 kts | 293° |
| 2026-04-22 06:58 | -2.89704 | 104.70420 | 26 ft | 0 kts | 293° |
| 2026-04-22 07:03 | -2.89689 | 104.70385 | 29 ft | 9 kts | 293° |
| 2026-04-22 07:03 | -2.89667 | 104.70333 | 29 ft | 7 kts | 292° |
| 2026-04-22 07:03 | -2.89650 | 104.70291 | 30 ft | 6 kts | 292° |
| 2026-04-22 07:04 | -2.89647 | 104.70259 | 26 ft | 3 kts | 237° |
| 2026-04-22 07:04 | -2.89670 | 104.70240 | 26 ft | 7 kts | 213° |
| 2026-04-22 07:04 | -2.89732 | 104.70201 | 24 ft | 13 kts | 245° |
| 2026-04-22 07:04 | -2.89707 | 104.70119 | 24 ft | 12 kts | 294° |
| 2026-04-22 07:05 | -2.89675 | 104.70045 | 22 ft | 12 kts | 288° |
| 2026-04-22 07:05 | -2.89644 | 104.69969 | 20 ft | 12 kts | 293° |
| 2026-04-22 07:05 | -2.89613 | 104.69897 | 19 ft | 11 kts | 293° |
| 2026-04-22 07:05 | -2.89578 | 104.69815 | 20 ft | 13 kts | 293° |
| 2026-04-22 07:06 | -2.89546 | 104.69739 | 20 ft | 11 kts | 294° |
| 2026-04-22 07:06 | -2.89518 | 104.69672 | 19 ft | 10 kts | 293° |
| 2026-04-22 07:06 | -2.89491 | 104.69609 | 18 ft | 10 kts | 293° |
| 2026-04-22 07:06 | -2.89467 | 104.69553 | 17 ft | 8 kts | 291° |
| 2026-04-22 07:07 | -2.89450 | 104.69506 | 19 ft | 6 kts | 290° |
| 2026-04-22 07:07 | -2.89436 | 104.69476 | 18 ft | 5 kts | 296° |
| 2026-04-22 07:07 | -2.89407 | 104.69409 | 19 ft | 16 kts | 291° |
| 2026-04-22 07:07 | -2.89364 | 104.69306 | 19 ft | 16 kts | 288° |
| 2026-04-22 07:08 | -2.89432 | 104.69246 | 16 ft | 16 kts | 202° |
| 2026-04-22 07:08 | -2.89518 | 104.69240 | 18 ft | 9 kts | 107° |
| 2026-04-22 07:08 | -2.89535 | 104.69291 | 16 ft | 0 kts | 112° |
| 2026-04-22 07:09 | -2.89535 | 104.69292 | 16 ft | 1 kts | 112° |
| 2026-04-22 07:09 | -2.89591 | 104.69426 | 13 ft | 55 kts | 112° |
| 2026-04-22 07:09 | -2.89832 | 104.69994 | 22 ft | 119 kts | 113° |
| 2026-04-22 07:10 | -2.90228 | 104.70929 | 28 ft | 176 kts | 113° |
| 2026-04-22 07:10 | -2.90681 | 104.72081 | 873 ft | 175 kts | 109° |
| 2026-04-22 07:10 | -2.91052 | 104.73219 | 1660 ft | 173 kts | 107° |
| 2026-04-22 07:10 | -2.91419 | 104.74413 | 2176 ft | 187 kts | 107° |
| 2026-04-22 07:11 | -2.91827 | 104.75741 | 2400 ft | 211 kts | 107° |
| 2026-04-22 07:11 | -2.92281 | 104.77212 | 2717 ft | 235 kts | 107° |
| 2026-04-22 07:11 | -2.92795 | 104.78851 | 3083 ft | 259 kts | 107° |
| 2026-04-22 07:11 | -2.93359 | 104.80618 | 3749 ft | 269 kts | 108° |
| 2026-04-22 07:12 | -2.93931 | 104.82391 | 4569 ft | 273 kts | 108° |
| 2026-04-22 07:12 | -2.94522 | 104.84216 | 5392 ft | 277 kts | 108° |
| 2026-04-22 07:12 | -2.95174 | 104.86044 | 6185 ft | 281 kts | 115° |
| 2026-04-22 07:12 | -2.96213 | 104.87723 | 6924 ft | 285 kts | 126° |
| 2026-04-22 07:13 | -2.97393 | 104.89334 | 7686 ft | 289 kts | 126° |
| 2026-04-22 07:13 | -2.98592 | 104.90969 | 8452 ft | 292 kts | 126° |
| 2026-04-22 07:13 | -2.99786 | 104.92602 | 9212 ft | 296 kts | 126° |
| 2026-04-22 07:13 | -3.01007 | 104.94278 | 9938 ft | 300 kts | 126° |
| 2026-04-22 07:14 | -3.02249 | 104.95985 | 10539 ft | 308 kts | 126° |
| 2026-04-22 07:14 | -3.03554 | 104.97781 | 10725 ft | 330 kts | 126° |
| 2026-04-22 07:14 | -3.04954 | 104.99702 | 11019 ft | 347 kts | 126° |
| 2026-04-22 07:14 | -3.06375 | 105.01650 | 11585 ft | 353 kts | 126° |
| 2026-04-22 07:15 | -3.07834 | 105.03653 | 12219 ft | 356 kts | 126° |
| 2026-04-22 07:15 | -3.09292 | 105.05654 | 12863 ft | 360 kts | 126° |
| 2026-04-22 07:15 | -3.10774 | 105.07689 | 13482 ft | 363 kts | 126° |
| 2026-04-22 07:15 | -3.12271 | 105.09744 | 14036 ft | 367 kts | 126° |
| 2026-04-22 07:16 | -3.13785 | 105.11822 | 14585 ft | 369 kts | 126° |
| 2026-04-22 07:16 | -3.15304 | 105.13912 | 15137 ft | 372 kts | 126° |
| 2026-04-22 07:16 | -3.16814 | 105.15987 | 15692 ft | 374 kts | 126° |
| 2026-04-22 07:16 | -3.18353 | 105.18102 | 16236 ft | 377 kts | 126° |
| 2026-04-22 07:17 | -3.19907 | 105.20234 | 16788 ft | 380 kts | 126° |
| 2026-04-22 07:17 | -3.21478 | 105.22390 | 17334 ft | 382 kts | 126° |
| 2026-04-22 07:17 | -3.23048 | 105.24546 | 17853 ft | 385 kts | 126° |
| 2026-04-22 07:17 | -3.24634 | 105.26720 | 18337 ft | 388 kts | 127° |
| 2026-04-22 07:18 | -3.26429 | 105.28709 | 18764 ft | 391 kts | 137° |
| 2026-04-22 07:18 | -3.28513 | 105.30477 | 19201 ft | 393 kts | 140° |
| 2026-04-22 07:18 | -3.30623 | 105.32232 | 19636 ft | 396 kts | 140° |
| 2026-04-22 07:18 | -3.32761 | 105.34010 | 20065 ft | 399 kts | 140° |
| 2026-04-22 07:19 | -3.34906 | 105.35798 | 20473 ft | 402 kts | 140° |
| 2026-04-22 07:19 | -3.37040 | 105.37577 | 20884 ft | 405 kts | 140° |
| 2026-04-22 07:19 | -3.39213 | 105.39391 | 21296 ft | 407 kts | 140° |
| 2026-04-22 07:19 | -3.41400 | 105.41220 | 21704 ft | 410 kts | 140° |
| 2026-04-22 07:20 | -3.43602 | 105.43063 | 22104 ft | 413 kts | 140° |
| 2026-04-22 07:20 | -3.45787 | 105.44888 | 22482 ft | 415 kts | 140° |
| 2026-04-22 07:20 | -3.48018 | 105.46754 | 22883 ft | 418 kts | 140° |
| 2026-04-22 07:20 | -3.50261 | 105.48630 | 23267 ft | 420 kts | 140° |
| 2026-04-22 07:21 | -3.52514 | 105.50510 | 23605 ft | 423 kts | 140° |
| 2026-04-22 07:21 | -3.54785 | 105.52402 | 23927 ft | 425 kts | 140° |
| 2026-04-22 07:21 | -3.57044 | 105.54284 | 24244 ft | 427 kts | 140° |
| 2026-04-22 07:21 | -3.59334 | 105.56194 | 24563 ft | 429 kts | 140° |
| 2026-04-22 07:22 | -3.61646 | 105.58125 | 24881 ft | 431 kts | 140° |
| 2026-04-22 07:22 | -3.63901 | 105.60011 | 25186 ft | 433 kts | 140° |
| 2026-04-22 07:22 | -3.66183 | 105.62011 | 25388 ft | 438 kts | 136° |
| 2026-04-22 07:22 | -3.68381 | 105.64166 | 25509 ft | 444 kts | 135° |
| 2026-04-22 07:23 | -3.70571 | 105.66391 | 25684 ft | 449 kts | 134° |
| 2026-04-22 07:23 | -3.72721 | 105.68624 | 25935 ft | 451 kts | 133° |
| 2026-04-22 07:23 | -3.74905 | 105.70910 | 26212 ft | 453 kts | 134° |
| 2026-04-22 07:23 | -3.77098 | 105.73196 | 26484 ft | 455 kts | 134° |
| 2026-04-22 07:24 | -3.79285 | 105.75460 | 26747 ft | 457 kts | 134° |
| 2026-04-22 07:24 | -3.81516 | 105.77753 | 27007 ft | 459 kts | 134° |
| 2026-04-22 07:24 | -3.83768 | 105.80057 | 27261 ft | 461 kts | 134° |
| 2026-04-22 07:24 | -3.86022 | 105.82357 | 27510 ft | 463 kts | 134° |
| 2026-04-22 07:25 | -3.88256 | 105.84638 | 27758 ft | 465 kts | 134° |
| 2026-04-22 07:25 | -3.90540 | 105.86972 | 28001 ft | 467 kts | 134° |
| 2026-04-22 07:25 | -3.92796 | 105.89279 | 28225 ft | 469 kts | 134° |
| 2026-04-22 07:25 | -3.95088 | 105.91622 | 28454 ft | 470 kts | 134° |
| 2026-04-22 07:26 | -3.97384 | 105.93974 | 28683 ft | 472 kts | 134° |
| 2026-04-22 07:26 | -3.99680 | 105.96329 | 28806 ft | 472 kts | 134° |
| 2026-04-22 07:26 | -4.01964 | 105.98670 | 28829 ft | 467 kts | 134° |
| 2026-04-22 07:27 | -4.06470 | 106.03286 | 28827 ft | 464 kts | 134° |
| 2026-04-22 07:27 | -4.10986 | 106.07921 | 28830 ft | 464 kts | 134° |
| 2026-04-22 07:28 | -4.17738 | 106.14847 | 28828 ft | 464 kts | 135° |
| 2026-04-22 07:28 | -4.22232 | 106.19444 | 28828 ft | 448 kts | 134° |
| 2026-04-22 07:29 | -4.24348 | 106.21611 | 28828 ft | 432 kts | 135° |
| 2026-04-22 07:29 | -4.26443 | 106.23757 | 28830 ft | 426 kts | 134° |
| 2026-04-22 07:29 | -4.29843 | 106.27251 | 28831 ft | 423 kts | 134° |
| 2026-04-22 07:30 | -4.33937 | 106.31460 | 28828 ft | 422 kts | 134° |
| 2026-04-22 07:30 | -4.38047 | 106.35672 | 28828 ft | 422 kts | 134° |
| 2026-04-22 07:31 | -4.42144 | 106.39879 | 28830 ft | 422 kts | 134° |
| 2026-04-22 07:31 | -4.46223 | 106.44075 | 28827 ft | 421 kts | 134° |
| 2026-04-22 07:32 | -4.50299 | 106.48256 | 28826 ft | 421 kts | 134° |
| 2026-04-22 07:32 | -4.54381 | 106.52447 | 28826 ft | 421 kts | 134° |
| 2026-04-22 07:33 | -4.58484 | 106.56666 | 28827 ft | 421 kts | 134° |
| 2026-04-22 07:33 | -4.62555 | 106.60846 | 28824 ft | 421 kts | 134° |
| 2026-04-22 07:34 | -4.66638 | 106.65035 | 28828 ft | 420 kts | 134° |
| 2026-04-22 07:34 | -4.70740 | 106.69253 | 28828 ft | 420 kts | 134° |
| 2026-04-22 07:35 | -4.74802 | 106.73429 | 28830 ft | 420 kts | 134° |
| 2026-04-22 07:35 | -4.78866 | 106.77613 | 28831 ft | 420 kts | 134° |
| 2026-04-22 07:36 | -4.82955 | 106.81814 | 28825 ft | 419 kts | 134° |
| 2026-04-22 07:36 | -4.87024 | 106.86000 | 28826 ft | 419 kts | 134° |
| 2026-04-22 07:37 | -4.91083 | 106.90174 | 28826 ft | 419 kts | 134° |
| 2026-04-22 07:37 | -4.95162 | 106.94364 | 28824 ft | 419 kts | 133° |
| 2026-04-22 07:38 | -4.99218 | 106.98531 | 28826 ft | 418 kts | 133° |
| 2026-04-22 07:38 | -5.03265 | 107.02702 | 28826 ft | 418 kts | 133° |
| 2026-04-22 07:39 | -5.07337 | 107.06900 | 28823 ft | 418 kts | 133° |
| 2026-04-22 07:39 | -5.11370 | 107.11053 | 28819 ft | 417 kts | 133° |
| 2026-04-22 07:40 | -5.15437 | 107.15236 | 28818 ft | 417 kts | 133° |
| 2026-04-22 07:40 | -5.19468 | 107.19390 | 28819 ft | 417 kts | 133° |
| 2026-04-22 07:41 | -5.23505 | 107.23551 | 28819 ft | 417 kts | 133° |
| 2026-04-22 07:41 | -5.27573 | 107.27736 | 28820 ft | 417 kts | 133° |
| 2026-04-22 07:42 | -5.31614 | 107.31896 | 28818 ft | 417 kts | 133° |
| 2026-04-22 07:42 | -5.35665 | 107.36077 | 28816 ft | 417 kts | 133° |
| 2026-04-22 07:43 | -5.39701 | 107.40239 | 28813 ft | 417 kts | 133° |
| 2026-04-22 07:43 | -5.43762 | 107.44423 | 28818 ft | 417 kts | 133° |
| 2026-04-22 07:44 | -5.47798 | 107.48580 | 28818 ft | 417 kts | 133° |
| 2026-04-22 07:44 | -5.51832 | 107.52750 | 28818 ft | 417 kts | 133° |
| 2026-04-22 07:45 | -5.55893 | 107.56946 | 28816 ft | 417 kts | 133° |
| 2026-04-22 07:45 | -5.59889 | 107.61067 | 28473 ft | 406 kts | 134° |
| 2026-04-22 07:46 | -5.61857 | 107.63095 | 28217 ft | 402 kts | 133° |
| 2026-04-22 07:46 | -5.63801 | 107.65101 | 27966 ft | 399 kts | 134° |
| 2026-04-22 07:46 | -5.65745 | 107.67107 | 27715 ft | 398 kts | 134° |
| 2026-04-22 07:46 | -5.67649 | 107.69072 | 27476 ft | 396 kts | 134° |
| 2026-04-22 07:47 | -5.69571 | 107.71059 | 27229 ft | 394 kts | 134° |
| 2026-04-22 07:47 | -5.71482 | 107.73033 | 26986 ft | 393 kts | 134° |
| 2026-04-22 07:47 | -5.73392 | 107.75005 | 26743 ft | 391 kts | 134° |
| 2026-04-22 07:47 | -5.75290 | 107.76966 | 26505 ft | 390 kts | 134° |
| 2026-04-22 07:48 | -5.77160 | 107.78902 | 26272 ft | 388 kts | 133° |
| 2026-04-22 07:48 | -5.79029 | 107.80837 | 26035 ft | 387 kts | 134° |
| 2026-04-22 07:48 | -5.80903 | 107.82776 | 25808 ft | 385 kts | 134° |
| 2026-04-22 07:48 | -5.82777 | 107.84714 | 25577 ft | 384 kts | 134° |
| 2026-04-22 07:49 | -5.84636 | 107.86634 | 25346 ft | 383 kts | 134° |
| 2026-04-22 07:49 | -5.86473 | 107.88528 | 25092 ft | 378 kts | 134° |
| 2026-04-22 07:49 | -5.88314 | 107.90426 | 24666 ft | 376 kts | 134° |
| 2026-04-22 07:49 | -5.89525 | 107.91677 | 24352 ft | 376 kts | 134° |
| 2026-04-22 07:50 | -5.91967 | 107.94154 | 23732 ft | 375 kts | 139° |
| 2026-04-22 07:50 | -5.94218 | 107.95471 | 23215 ft | 376 kts | 162° |
| 2026-04-22 07:50 | -5.95920 | 107.95806 | 22861 ft | 375 kts | 178° |
| 2026-04-22 07:50 | -5.98483 | 107.95444 | 22423 ft | 372 kts | 200° |
| 2026-04-22 07:51 | -6.00686 | 107.94131 | 22001 ft | 369 kts | 223° |
| 2026-04-22 07:51 | -6.02199 | 107.92098 | 21580 ft | 366 kts | 246° |
| 2026-04-22 07:51 | -6.02843 | 107.89633 | 21160 ft | 363 kts | 268° |
| 2026-04-22 07:51 | -6.02534 | 107.87139 | 20747 ft | 359 kts | 290° |
| 2026-04-22 07:52 | -6.01335 | 107.84966 | 20344 ft | 356 kts | 311° |
| 2026-04-22 07:52 | -5.99547 | 107.83297 | 19945 ft | 353 kts | 318° |
| 2026-04-22 07:52 | -5.97927 | 107.81446 | 19535 ft | 351 kts | 303° |
| 2026-04-22 07:52 | -5.96844 | 107.79291 | 19156 ft | 350 kts | 289° |
| 2026-04-22 07:53 | -5.96268 | 107.76916 | 18759 ft | 349 kts | 277° |
| 2026-04-22 07:53 | -5.96179 | 107.74478 | 18371 ft | 348 kts | 270° |
| 2026-04-22 07:53 | -5.96186 | 107.72048 | 17961 ft | 347 kts | 270° |
| 2026-04-22 07:53 | -5.96184 | 107.69656 | 17556 ft | 345 kts | 270° |
| 2026-04-22 07:54 | -5.96177 | 107.67248 | 17172 ft | 343 kts | 270° |
| 2026-04-22 07:54 | -5.96170 | 107.64863 | 16800 ft | 340 kts | 270° |
| 2026-04-22 07:54 | -5.96167 | 107.62507 | 16567 ft | 334 kts | 270° |
| 2026-04-22 07:54 | -5.96167 | 107.60182 | 16161 ft | 329 kts | 270° |
| 2026-04-22 07:55 | -5.96167 | 107.57886 | 15532 ft | 327 kts | 270° |
| 2026-04-22 07:55 | -5.96168 | 107.55612 | 14946 ft | 324 kts | 270° |
| 2026-04-22 07:55 | -5.96167 | 107.53400 | 14485 ft | 319 kts | 270° |
| 2026-04-22 07:55 | -5.96167 | 107.51181 | 14034 ft | 316 kts | 270° |
| 2026-04-22 07:56 | -5.96168 | 107.48950 | 13586 ft | 320 kts | 270° |
| 2026-04-22 07:56 | -5.96170 | 107.46729 | 13151 ft | 314 kts | 270° |
| 2026-04-22 07:56 | -5.96171 | 107.44582 | 12662 ft | 309 kts | 270° |
| 2026-04-22 07:56 | -5.96171 | 107.42421 | 12230 ft | 308 kts | 270° |
| 2026-04-22 07:57 | -5.96171 | 107.40261 | 11824 ft | 309 kts | 271° |
| 2026-04-22 07:57 | -5.96168 | 107.38097 | 11423 ft | 309 kts | 271° |
| 2026-04-22 07:57 | -5.96166 | 107.35989 | 11128 ft | 297 kts | 271° |
| 2026-04-22 07:57 | -5.96164 | 107.33971 | 10912 ft | 282 kts | 271° |
| 2026-04-22 07:58 | -5.96162 | 107.32036 | 10962 ft | 275 kts | 271° |
| 2026-04-22 07:58 | -5.96160 | 107.30094 | 10765 ft | 281 kts | 271° |
| 2026-04-22 07:58 | -5.96155 | 107.28164 | 10517 ft | 277 kts | 271° |
| 2026-04-22 07:58 | -5.96153 | 107.26223 | 10221 ft | 276 kts | 271° |
| 2026-04-22 07:59 | -5.96153 | 107.24558 | 9931 ft | 274 kts | 271° |
| 2026-04-22 07:59 | -5.96151 | 107.22675 | 9407 ft | 272 kts | 271° |
| 2026-04-22 07:59 | -5.96149 | 107.20784 | 8847 ft | 270 kts | 271° |
| 2026-04-22 07:59 | -5.96145 | 107.18904 | 8339 ft | 266 kts | 271° |
| 2026-04-22 08:00 | -5.96143 | 107.17075 | 7933 ft | 263 kts | 270° |
| 2026-04-22 08:00 | -5.96142 | 107.15233 | 7540 ft | 264 kts | 270° |
| 2026-04-22 08:00 | -5.96140 | 107.13382 | 7189 ft | 263 kts | 270° |
| 2026-04-22 08:00 | -5.96139 | 107.11819 | 7129 ft | 247 kts | 270° |
| 2026-04-22 08:01 | -5.96226 | 107.10155 | 7049 ft | 234 kts | 259° |
| 2026-04-22 08:01 | -5.96725 | 107.08605 | 6766 ft | 234 kts | 249° |
| 2026-04-22 08:01 | -5.97319 | 107.07086 | 6420 ft | 231 kts | 249° |
| 2026-04-22 08:01 | -5.97894 | 107.05614 | 6089 ft | 227 kts | 248° |
| 2026-04-22 08:02 | -5.98465 | 107.04154 | 5764 ft | 222 kts | 248° |
| 2026-04-22 08:02 | -5.99024 | 107.02723 | 5453 ft | 216 kts | 249° |
| 2026-04-22 08:02 | -5.99536 | 107.01317 | 5160 ft | 212 kts | 249° |
| 2026-04-22 08:02 | -6.00056 | 106.99961 | 4885 ft | 207 kts | 248° |
| 2026-04-22 08:03 | -6.00577 | 106.98645 | 4610 ft | 199 kts | 248° |
| 2026-04-22 08:03 | -6.01090 | 106.97360 | 4310 ft | 194 kts | 248° |
| 2026-04-22 08:03 | -6.01574 | 106.96148 | 4109 ft | 183 kts | 248° |
| 2026-04-22 08:03 | -6.02036 | 106.94991 | 4022 ft | 172 kts | 248° |
| 2026-04-22 08:04 | -6.02468 | 106.93911 | 4016 ft | 161 kts | 248° |
| 2026-04-22 08:04 | -6.02880 | 106.92878 | 4021 ft | 160 kts | 248° |
| 2026-04-22 08:04 | -6.03294 | 106.91841 | 4025 ft | 159 kts | 248° |
| 2026-04-22 08:04 | -6.03709 | 106.90803 | 4020 ft | 159 kts | 248° |
| 2026-04-22 08:05 | -6.04117 | 106.89781 | 4019 ft | 159 kts | 248° |
| 2026-04-22 08:05 | -6.04531 | 106.88745 | 3932 ft | 160 kts | 248° |
| 2026-04-22 08:05 | -6.04943 | 106.87712 | 3790 ft | 158 kts | 248° |
| 2026-04-22 08:05 | -6.05349 | 106.86695 | 3679 ft | 157 kts | 248° |
| 2026-04-22 08:06 | -6.05760 | 106.85666 | 3612 ft | 158 kts | 248° |
| 2026-04-22 08:06 | -6.06165 | 106.84651 | 3429 ft | 157 kts | 248° |
| 2026-04-22 08:06 | -6.06573 | 106.83628 | 3242 ft | 157 kts | 248° |
| 2026-04-22 08:06 | -6.06974 | 106.82624 | 3048 ft | 156 kts | 248° |
| 2026-04-22 08:07 | -6.07377 | 106.81614 | 2853 ft | 155 kts | 248° |
| 2026-04-22 08:07 | -6.07781 | 106.80602 | 2651 ft | 155 kts | 248° |
| 2026-04-22 08:07 | -6.08184 | 106.79592 | 2452 ft | 155 kts | 248° |
| 2026-04-22 08:07 | -6.08581 | 106.78596 | 2256 ft | 155 kts | 248° |
| 2026-04-22 08:08 | -6.08983 | 106.77590 | 2053 ft | 155 kts | 249° |
| 2026-04-22 08:08 | -6.09384 | 106.76584 | 1858 ft | 155 kts | 249° |
| 2026-04-22 08:08 | -6.09786 | 106.75576 | 1650 ft | 155 kts | 250° |
| 2026-04-22 08:08 | -6.10187 | 106.74570 | 1449 ft | 155 kts | 250° |
| 2026-04-22 08:09 | -6.10586 | 106.73571 | 1265 ft | 155 kts | 250° |
| 2026-04-22 08:09 | -6.10987 | 106.72565 | 1061 ft | 154 kts | 251° |
| 2026-04-22 08:09 | -6.11389 | 106.71558 | 874 ft | 155 kts | 249° |
| 2026-04-22 08:09 | -6.11793 | 106.70544 | 701 ft | 156 kts | 250° |
| 2026-04-22 08:10 | -6.12191 | 106.69547 | 515 ft | 154 kts | 251° |
| 2026-04-22 08:10 | -6.12587 | 106.68553 | 308 ft | 153 kts | 252° |
| 2026-04-22 08:10 | -6.12997 | 106.67564 | 115 ft | 153 kts | 252° |
| 2026-04-22 08:10 | -6.13357 | 106.66611 | 40 ft | 135 kts | 247° |
| 2026-04-22 08:11 | -6.13638 | 106.65906 | 39 ft | 85 kts | 248° |
| 2026-04-22 08:11 | -6.13771 | 106.65508 | 40 ft | 26 kts | 271° |
| 2026-04-22 08:11 | -6.13744 | 106.65417 | 40 ft | 12 kts | 276° |
| 2026-04-22 08:11 | -6.13708 | 106.65348 | 39 ft | 13 kts | 338° |
| 2026-04-22 08:12 | -6.13672 | 106.65335 | 39 ft | 4 kts | 340° |
| 2026-04-22 08:12 | -6.13646 | 106.65325 | 39 ft | 4 kts | 339° |
| 2026-04-22 08:12 | -6.13617 | 106.65313 | 39 ft | 5 kts | 336° |
| 2026-04-22 08:12 | -6.13570 | 106.65294 | 38 ft | 9 kts | 338° |
| 2026-04-22 08:13 | -6.13505 | 106.65268 | 36 ft | 11 kts | 339° |
| 2026-04-22 08:13 | -6.13426 | 106.65239 | 38 ft | 13 kts | 340° |
| 2026-04-22 08:13 | -6.13336 | 106.65201 | 36 ft | 15 kts | 328° |
| 2026-04-22 08:13 | -6.13268 | 106.65116 | 37 ft | 17 kts | 310° |
| 2026-04-22 08:14 | -6.13176 | 106.65074 | 38 ft | 14 kts | 358° |
| 2026-04-22 08:14 | -6.13081 | 106.65085 | 38 ft | 4 kts | 9° |
| 2026-04-22 08:14 | -6.13058 | 106.65088 | 38 ft | 3 kts | 10° |
| 2026-04-22 08:14 | -6.13044 | 106.65104 | 38 ft | 6 kts | 70° |
| 2026-04-22 08:15 | -6.13050 | 106.65138 | 38 ft | 0 kts | 105° |
| 2026-04-22 08:15 | -6.13051 | 106.65144 | 38 ft | 2 kts | 103° |
| 2026-04-22 08:15 | -6.13053 | 106.65151 | 38 ft | 1 kts | 103° |
| 2026-04-22 08:15 | -6.13053 | 106.65153 | 38 ft | 0 kts | 103° |